createdAt,value
2023-06-08T00:02:25.590Z,97033.78
2023-06-08T00:04:54.175Z,97090.44
2023-06-08T00:07:22.966Z,97090.09
2023-06-08T00:09:52.273Z,97080.09
2023-06-08T00:12:19.460Z,97076.97
2023-06-08T00:14:46.950Z,97066.13
2023-06-08T00:17:14.899Z,97077.94
2023-06-08T00:19:44.171Z,97043.94
2023-06-08T00:22:14.153Z,97017.22
2023-06-08T00:24:41.523Z,97076.75
2023-06-08T00:27:10.065Z,97071.25
2023-06-08T00:29:36.859Z,97077.66
2023-06-08T00:32:04.019Z,97079.25
2023-06-08T00:34:30.951Z,97076.13
2023-06-08T00:36:57.681Z,97070.19
2023-06-08T00:39:24.309Z,97060.59
2023-06-08T00:41:51.231Z,97061.75
2023-06-08T00:44:18.076Z,97061.78
2023-06-08T00:46:44.895Z,97053.44
2023-06-08T00:49:17.232Z,97047.84
2023-06-08T00:51:44.921Z,97055.31
2023-06-08T00:54:15.912Z,97017.00
2023-06-08T00:56:43.602Z,97041.81
2023-06-08T00:59:13.177Z,96965.44
2023-06-08T01:01:41.672Z,96991.47
2023-06-08T01:04:10.137Z,97013.91
2023-06-08T01:06:46.067Z,97036.22
2023-06-08T01:09:45.238Z,97005.88
2023-06-08T01:12:34.365Z,97039.41
2023-06-08T01:15:13.409Z,97036.22
2023-06-08T01:17:49.662Z,97037.72
2023-06-08T01:20:36.098Z,97034.16
2023-06-08T01:23:12.159Z,97039.28
2023-06-08T01:25:40.205Z,97028.78
2023-06-08T01:28:14.195Z,97021.63
2023-06-08T01:30:50.499Z,97035.50
2023-06-08T01:33:19.916Z,97024.75
2023-06-08T01:36:08.639Z,97019.25
2023-06-08T01:38:47.356Z,97011.59
2023-06-08T01:41:21.948Z,97012.69
2023-06-08T01:43:51.643Z,97016.34
2023-06-08T01:46:21.445Z,97031.44
2023-06-08T01:48:50.082Z,97019.91
2023-06-08T01:51:18.161Z,97026.59
2023-06-08T01:53:44.927Z,97029.72
2023-06-08T01:56:11.638Z,97012.47
2023-06-08T01:58:38.335Z,97012.94
2023-06-08T02:01:05.018Z,97015.81
2023-06-08T02:03:31.700Z,97026.13
2023-06-08T02:05:58.331Z,97013.47
2023-06-08T02:08:24.975Z,97023.75
2023-06-08T02:10:51.674Z,96967.72
2023-06-08T02:13:18.302Z,97021.97
2023-06-08T02:15:44.886Z,97016.47
2023-06-08T02:18:12.454Z,97014.84
2023-06-08T02:20:39.024Z,97016.94
2023-06-08T02:23:05.682Z,97009.50
2023-06-08T02:25:32.300Z,96931.31
2023-06-08T02:27:59.004Z,97007.56
2023-06-08T02:30:26.758Z,96995.09
2023-06-08T02:32:54.510Z,97004.66
2023-06-08T02:35:21.392Z,97001.50
2023-06-08T02:37:48.104Z,97025.25
2023-06-08T02:40:14.745Z,97015.06
2023-06-08T02:42:41.745Z,97010.28
2023-06-08T02:45:08.755Z,97010.31
2023-06-08T02:47:35.728Z,96989.47
2023-06-08T02:50:02.631Z,97023.81
2023-06-08T02:52:29.302Z,97027.63
2023-06-08T02:54:55.912Z,97019.25
2023-06-08T02:57:22.522Z,97021.31
2023-06-08T02:59:49.175Z,96977.81
2023-06-08T03:02:16.284Z,97022.53
2023-06-08T03:04:44.985Z,96974.13
2023-06-08T03:07:16.682Z,97024.56
2023-06-08T03:09:43.711Z,97007.84
2023-06-08T03:12:13.643Z,97024.50
2023-06-08T03:14:41.824Z,97026.63
2023-06-08T03:17:09.071Z,97031.81
2023-06-08T03:19:35.700Z,97027.44
2023-06-08T03:22:06.063Z,97016.34
2023-06-08T03:24:34.114Z,97032.72
2023-06-08T03:27:02.663Z,97029.56
2023-06-08T03:29:30.311Z,97030.50
2023-06-08T03:31:58.124Z,97028.94
2023-06-08T03:34:26.801Z,97037.69
2023-06-08T03:36:54.653Z,96940.41
2023-06-08T03:39:21.963Z,97050.50
2023-06-08T03:41:48.927Z,97033.78
2023-06-08T03:44:15.651Z,97034.97
2023-06-08T03:46:42.379Z,97049.38
2023-06-08T03:49:09.143Z,97053.06
2023-06-08T03:51:36.968Z,97038.38
2023-06-08T03:54:03.765Z,97053.94
2023-06-08T03:56:30.526Z,97054.38
2023-06-08T03:58:58.070Z,97008.59
2023-06-08T04:01:24.895Z,97060.47
2023-06-08T04:03:51.994Z,97059.34
2023-06-08T04:06:19.998Z,97053.78
2023-06-08T04:08:46.758Z,97055.84
2023-06-08T04:11:13.778Z,97058.22
2023-06-08T04:13:41.717Z,97040.31
2023-06-08T04:16:10.948Z,97054.25
2023-06-08T04:18:41.059Z,97057.44
2023-06-08T04:21:08.792Z,97055.03
2023-06-08T04:23:37.142Z,97078.19
2023-06-08T04:26:08.266Z,97065.41
2023-06-08T04:28:36.056Z,97079.38
2023-06-08T04:31:03.028Z,97063.03
2023-06-08T04:33:29.853Z,97069.34
2023-06-08T04:35:57.703Z,97072.50
2023-06-08T04:38:24.603Z,97066.88
2023-06-08T04:40:55.803Z,97065.22
2023-06-08T04:43:23.568Z,97065.97
2023-06-08T04:45:58.699Z,97069.09
2023-06-08T04:48:29.573Z,97062.63
2023-06-08T04:51:01.345Z,97000.38
2023-06-08T04:53:34.952Z,97058.88
2023-06-08T04:56:02.947Z,97055.13
2023-06-08T04:58:30.949Z,97055.19
2023-06-08T05:00:58.538Z,97036.72
2023-06-08T05:03:26.849Z,97052.50
2023-06-08T05:05:53.977Z,97045.94
2023-06-08T05:08:20.798Z,96994.59
2023-06-08T05:10:47.531Z,97050.53
2023-06-08T05:13:14.375Z,97060.34
2023-06-08T05:15:40.986Z,97050.22
2023-06-08T05:18:07.730Z,97001.41
2023-06-08T05:20:34.565Z,97053.78
2023-06-08T05:23:01.304Z,97024.53
2023-06-08T05:25:28.087Z,97053.81
2023-06-08T05:27:54.668Z,97053.66
2023-06-08T05:30:21.353Z,97046.19
2023-06-08T05:32:48.207Z,96979.31
2023-06-08T05:35:14.853Z,96999.78
2023-06-08T05:37:41.519Z,97046.47
2023-06-08T05:40:09.218Z,96994.28
2023-06-08T05:42:36.297Z,96767.84
2023-06-08T05:45:03.019Z,96966.13
2023-06-08T05:47:32.993Z,96982.25
2023-06-08T05:50:01.577Z,96972.06
2023-06-08T05:52:28.378Z,96960.78
2023-06-08T05:54:55.036Z,97015.81
2023-06-08T05:57:21.806Z,97041.03
2023-06-08T05:59:48.493Z,97024.16
2023-06-08T06:02:15.257Z,97045.31
2023-06-08T06:04:42.562Z,96970.38
2023-06-08T06:07:09.577Z,97021.31
2023-06-08T06:09:36.682Z,97032.16
2023-06-08T06:12:04.060Z,96958.41
2023-06-08T06:14:39.528Z,97048.78
2023-06-08T06:17:08.369Z,97052.84
2023-06-08T06:19:39.715Z,97042.66
2023-06-08T06:22:11.100Z,97031.91
2023-06-08T06:24:38.682Z,97040.63
2023-06-08T06:27:06.771Z,97060.78
2023-06-08T06:29:33.917Z,97038.81
2023-06-08T06:32:00.867Z,97036.28
2023-06-08T06:34:27.561Z,97033.78
2023-06-08T06:36:54.644Z,97041.19
2023-06-08T06:39:21.386Z,97028.75
2023-06-08T06:41:48.040Z,97030.78
2023-06-08T06:44:14.671Z,96999.91
2023-06-08T06:46:42.082Z,97017.75
2023-06-08T06:49:09.003Z,97028.34
2023-06-08T06:51:37.641Z,96965.41
2023-06-08T06:54:04.455Z,97015.00
2023-06-08T06:56:32.306Z,97025.31
2023-06-08T06:58:59.238Z,97004.63
2023-06-08T07:01:26.298Z,96967.38
2023-06-08T07:03:53.558Z,97006.13
2023-06-08T07:06:24.435Z,96956.38
2023-06-08T07:08:51.695Z,96977.41
2023-06-08T07:11:18.450Z,96953.22
2023-06-08T07:13:45.193Z,96969.81
2023-06-08T07:16:12.031Z,96907.47
2023-06-08T07:18:38.922Z,96819.69
2023-06-08T07:21:05.531Z,97014.44
2023-06-08T07:23:40.234Z,97015.66
2023-06-08T07:26:26.232Z,97014.44
2023-06-08T07:28:55.414Z,97009.06
2023-06-08T07:31:24.353Z,97007.28
2023-06-08T07:33:51.959Z,97008.28
2023-06-08T07:36:18.632Z,96958.38
2023-06-08T07:38:45.496Z,97006.22
2023-06-08T07:41:12.724Z,97005.53
2023-06-08T07:43:40.911Z,96997.84
2023-06-08T07:46:07.677Z,96997.50
2023-06-08T07:48:34.407Z,96792.44
2023-06-08T07:51:01.284Z,96954.91
2023-06-08T07:53:38.887Z,96996.81
2023-06-08T07:56:06.443Z,96991.47
2023-06-08T07:58:33.637Z,96998.94
2023-06-08T08:01:01.628Z,96997.97
2023-06-08T08:03:29.448Z,96993.44
2023-06-08T08:05:56.835Z,96998.75
2023-06-08T08:08:23.526Z,96973.50
2023-06-08T08:10:50.592Z,96930.69
2023-06-08T08:13:17.289Z,96904.38
2023-06-08T08:15:44.063Z,96939.44
2023-06-08T08:18:11.321Z,96883.63
2023-06-08T08:20:38.250Z,96991.63
2023-06-08T08:23:04.920Z,96966.75
2023-06-08T08:25:31.641Z,96800.34
2023-06-08T08:27:58.949Z,96941.78
2023-06-08T08:30:25.954Z,96992.91
2023-06-08T08:32:52.655Z,96973.84
2023-06-08T08:35:19.677Z,96976.06
2023-06-08T08:37:46.640Z,96980.94
2023-06-08T08:40:14.842Z,96941.69
2023-06-08T08:42:52.600Z,96862.63
2023-06-08T08:45:22.739Z,96953.47
2023-06-08T08:47:54.640Z,96982.28
2023-06-08T08:50:22.007Z,96856.53
2023-06-08T08:52:54.498Z,96821.78
2023-06-08T08:55:35.625Z,96935.41
2023-06-08T08:58:03.333Z,96958.16
2023-06-08T09:00:36.883Z,96974.22
2023-06-08T09:03:03.662Z,96913.19
2023-06-08T09:05:30.429Z,96964.78
2023-06-08T09:07:57.551Z,96963.59
2023-06-08T09:10:26.876Z,96945.28
2023-06-08T09:13:00.694Z,96937.81
2023-06-08T09:15:28.979Z,96958.97
2023-06-08T09:17:57.010Z,96940.72
2023-06-08T09:20:42.127Z,96952.22
2023-06-08T09:23:21.416Z,96811.13
2023-06-08T09:25:48.640Z,96970.97
2023-06-08T09:28:23.752Z,96874.97
2023-06-08T09:30:51.177Z,96958.94
2023-06-08T09:33:18.488Z,96897.66
2023-06-08T09:35:45.605Z,96973.22
2023-06-08T09:38:23.010Z,96939.88
2023-06-08T09:40:50.799Z,96884.09
2023-06-08T09:43:34.693Z,96940.78
2023-06-08T09:46:01.429Z,96762.03
2023-06-08T09:48:28.041Z,96929.94
2023-06-08T09:51:01.391Z,96812.69
2023-06-08T09:53:29.241Z,96928.50
2023-06-08T09:56:00.262Z,96938.47
2023-06-08T09:58:30.527Z,96920.00
2023-06-08T10:01:05.528Z,96864.81
2023-06-08T10:03:40.044Z,96913.41
2023-06-08T10:06:10.097Z,96898.88
2023-06-08T10:08:39.947Z,96532.84
2023-06-08T10:11:08.905Z,96907.25
2023-06-08T10:13:36.033Z,96900.00
2023-06-08T10:16:03.452Z,96929.88
2023-06-08T10:18:31.582Z,96891.31
2023-06-08T10:20:58.695Z,96902.00
2023-06-08T10:23:26.468Z,96906.06
2023-06-08T10:25:54.938Z,96892.53
2023-06-08T10:28:22.093Z,96894.13
2023-06-08T10:30:48.987Z,96901.03
2023-06-08T10:33:25.756Z,96891.31
2023-06-08T10:36:11.033Z,96878.91
2023-06-08T10:38:57.140Z,96882.78
2023-06-08T10:41:46.757Z,96881.50
2023-06-08T10:44:27.792Z,96872.44
2023-06-08T10:47:13.235Z,96859.16
2023-06-08T10:49:45.768Z,96864.03
2023-06-08T10:52:21.109Z,96831.84
2023-06-08T10:54:53.066Z,96851.75
2023-06-08T10:57:41.113Z,96853.19
2023-06-08T11:00:26.391Z,96847.03
2023-06-08T11:02:59.076Z,96834.63
2023-06-08T11:05:29.615Z,96832.94
2023-06-08T11:07:57.501Z,96834.84
2023-06-08T11:10:25.022Z,96839.28
2023-06-08T11:12:51.716Z,96797.88
2023-06-08T11:15:19.886Z,96817.47
2023-06-08T11:18:00.362Z,96831.91
2023-06-08T11:20:27.965Z,96766.94
2023-06-08T11:22:55.043Z,96780.44
2023-06-08T11:25:24.410Z,96805.84
2023-06-08T11:27:56.862Z,96777.28
2023-06-08T11:30:27.933Z,96772.47
2023-06-08T11:32:58.001Z,96819.78
2023-06-08T11:35:25.094Z,96729.13
2023-06-08T11:38:00.476Z,96807.28
2023-06-08T11:40:28.260Z,96808.69
2023-06-08T11:42:57.115Z,96785.53
2023-06-08T11:45:24.813Z,96801.44
2023-06-08T11:48:13.925Z,96797.38
2023-06-08T11:50:51.632Z,96731.47
2023-06-08T11:53:27.914Z,96805.91
2023-06-08T11:55:55.467Z,96757.81
2023-06-08T11:58:29.269Z,96734.13
2023-06-08T12:01:12.584Z,96784.41
2023-06-08T12:03:43.937Z,96793.44
2023-06-08T12:06:11.108Z,96767.06
2023-06-08T12:08:37.734Z,96760.25
2023-06-08T12:11:11.887Z,96789.41
2023-06-08T12:13:43.230Z,96743.25
2023-06-08T12:16:11.516Z,96788.38
2023-06-08T12:18:42.629Z,96779.56
2023-06-08T12:21:11.840Z,96780.75
2023-06-08T12:23:38.589Z,96782.69
2023-06-08T12:26:05.283Z,96779.56
2023-06-08T12:28:33.011Z,96741.94
2023-06-08T12:31:02.131Z,96559.75
2023-06-08T12:33:29.404Z,96765.22
2023-06-08T12:35:56.129Z,96750.75
2023-06-08T12:38:23.441Z,96756.75
2023-06-08T12:40:52.916Z,96739.31
2023-06-08T12:43:21.582Z,96693.41
2023-06-08T12:45:49.323Z,96721.38
2023-06-08T12:48:16.931Z,96681.81
2023-06-08T12:50:43.648Z,96726.41
2023-06-08T12:53:10.348Z,96638.88
2023-06-08T12:55:37.136Z,96738.88
2023-06-08T12:58:03.796Z,96663.09
2023-06-08T13:00:30.425Z,96738.75
2023-06-08T13:02:58.676Z,96619.63
2023-06-08T13:05:30.357Z,96719.78
2023-06-08T13:08:07.541Z,96669.56
2023-06-08T13:10:36.724Z,96690.75
2023-06-08T13:13:04.745Z,96737.09
2023-06-08T13:15:32.414Z,96729.13
2023-06-08T13:17:59.662Z,96579.56
2023-06-08T13:20:26.806Z,96742.66
2023-06-08T13:22:54.340Z,96675.84
2023-06-08T13:25:22.312Z,96736.72
2023-06-08T13:27:49.563Z,96591.28
2023-06-08T13:30:16.822Z,96727.41
2023-06-08T13:32:45.447Z,96706.50
2023-06-08T13:35:12.674Z,96695.31
2023-06-08T13:37:39.527Z,96725.13
2023-06-08T13:40:09.569Z,96596.25
2023-06-08T13:42:37.175Z,96709.94
2023-06-08T13:45:04.111Z,96693.19
2023-06-08T13:47:30.772Z,96699.72
2023-06-08T13:49:57.437Z,96686.81
2023-06-08T13:52:24.393Z,96704.31
2023-06-08T13:54:50.974Z,96637.59
2023-06-08T13:57:17.643Z,96679.84
2023-06-08T13:59:44.280Z,96625.84
2023-06-08T14:02:11.044Z,96690.31
2023-06-08T14:04:37.970Z,96685.44
2023-06-08T14:07:04.819Z,96686.41
2023-06-08T14:09:32.425Z,96635.66
2023-06-08T14:11:59.899Z,96678.91
2023-06-08T14:14:26.639Z,96673.63
2023-06-08T14:16:53.354Z,96616.84
2023-06-08T14:19:19.956Z,96664.88
2023-06-08T14:21:47.091Z,96616.06
2023-06-08T14:24:13.962Z,96629.13
2023-06-08T14:26:40.840Z,96556.56
2023-06-08T14:29:09.487Z,96674.41
2023-06-08T14:31:36.198Z,96658.44
2023-06-08T14:34:02.976Z,96551.16
2023-06-08T14:36:29.616Z,96643.75
2023-06-08T14:38:56.896Z,96637.06
2023-06-08T14:41:24.320Z,96538.06
2023-06-08T14:43:52.869Z,96637.94
2023-06-08T14:46:20.200Z,96638.91
2023-06-08T14:48:47.217Z,96540.72
2023-06-08T14:51:35.550Z,96623.03
2023-06-08T14:54:01.972Z,96638.84
2023-06-08T14:56:28.809Z,96637.06
2023-06-08T14:58:55.528Z,96649.84
2023-06-08T15:01:22.247Z,96637.75
2023-06-08T15:03:49.000Z,96556.16
2023-06-08T15:06:15.694Z,96588.66
2023-06-08T15:08:42.359Z,96604.44
2023-06-08T15:11:09.114Z,96637.69
2023-06-08T15:13:35.767Z,96638.41
2023-06-08T15:16:03.203Z,96648.56
2023-06-08T15:18:32.334Z,96556.88
2023-06-08T15:20:59.427Z,96631.53
2023-06-08T15:23:26.083Z,96612.16
2023-06-08T15:25:52.901Z,96638.47
2023-06-08T15:28:19.924Z,96599.41
2023-06-08T15:30:46.729Z,96625.47
2023-06-08T15:33:13.597Z,96639.91
2023-06-08T15:35:40.237Z,96633.44
2023-06-08T15:38:06.957Z,96628.97
2023-06-08T15:40:33.617Z,96628.44
2023-06-08T15:43:00.397Z,96634.81
2023-06-08T15:45:27.269Z,96619.47
2023-06-08T15:47:53.957Z,96611.44
2023-06-08T15:50:20.698Z,96625.19
2023-06-08T15:52:47.392Z,96627.19
2023-06-08T15:55:14.142Z,96628.28
2023-06-08T15:57:40.957Z,96606.34
2023-06-08T16:00:09.039Z,96626.91
2023-06-08T16:02:38.090Z,96555.56
2023-06-08T16:05:07.012Z,96539.72
2023-06-08T16:07:33.851Z,96613.56
2023-06-08T16:10:04.733Z,96617.78
2023-06-08T16:12:31.714Z,96621.25
2023-06-08T16:14:58.798Z,96614.50
2023-06-08T16:17:25.740Z,96630.47
2023-06-08T16:19:52.526Z,96623.28
2023-06-08T16:22:19.238Z,96630.63
2023-06-08T16:24:45.960Z,96601.00
2023-06-08T16:27:14.965Z,96302.91
2023-06-08T16:29:42.241Z,96651.72
2023-06-08T16:32:09.177Z,96631.44
2023-06-08T16:34:35.936Z,96633.66
2023-06-08T16:37:02.624Z,96633.78
2023-06-08T16:39:29.354Z,96662.47
2023-06-08T16:41:56.106Z,96654.97
2023-06-08T16:44:22.809Z,96650.00
2023-06-08T16:46:49.475Z,96646.31
2023-06-08T16:49:16.293Z,96660.81
2023-06-08T16:51:43.142Z,96656.03
2023-06-08T16:54:09.798Z,96654.44
2023-06-08T16:56:36.726Z,96639.69
2023-06-08T16:59:03.438Z,96654.16
2023-06-08T17:01:30.102Z,96643.63
2023-06-08T17:03:58.382Z,96654.63
2023-06-08T17:06:25.055Z,96648.59
2023-06-08T17:08:51.802Z,96655.91
2023-06-08T17:11:18.485Z,96638.78
2023-06-08T17:13:45.473Z,96646.56
2023-06-08T17:16:12.124Z,96651.56
2023-06-08T17:18:39.407Z,96602.75
2023-06-08T17:21:08.561Z,96661.81
2023-06-08T17:23:35.819Z,96638.13
2023-06-08T17:26:02.646Z,96666.47
2023-06-08T17:28:29.345Z,96638.00
2023-06-08T17:30:56.217Z,96716.06
2023-06-08T17:33:25.149Z,96671.66
2023-06-08T17:35:52.230Z,96725.72
2023-06-08T17:38:18.930Z,96676.06
2023-06-08T17:40:45.806Z,96716.28
2023-06-08T17:43:12.433Z,96688.25
2023-06-08T17:45:39.131Z,96696.84
2023-06-08T17:48:06.137Z,96710.91
2023-06-08T17:50:32.893Z,96698.41
2023-06-08T17:53:03.721Z,96730.72
2023-06-08T17:55:31.135Z,96728.94
2023-06-08T17:57:59.305Z,96703.81
2023-06-08T18:00:27.214Z,96791.66
2023-06-08T18:02:54.324Z,96738.84
2023-06-08T18:05:21.679Z,96763.41
2023-06-08T18:07:48.341Z,96755.50
2023-06-08T18:10:15.205Z,96768.34
2023-06-08T18:12:42.919Z,96743.47
2023-06-08T18:15:09.973Z,96758.44
2023-06-08T18:17:36.616Z,96706.25
2023-06-08T18:20:06.435Z,96714.63
2023-06-08T18:22:34.021Z,96766.25
2023-06-08T18:25:01.974Z,96783.69
2023-06-08T18:27:29.095Z,96765.75
2023-06-08T18:29:55.937Z,96793.38
2023-06-08T18:32:22.645Z,96759.75
2023-06-08T18:34:49.385Z,96777.69
2023-06-08T18:37:16.988Z,96781.16
2023-06-08T18:39:57.160Z,96801.25
2023-06-08T18:42:25.876Z,96772.41
2023-06-08T18:44:52.601Z,96762.03
2023-06-08T18:47:19.385Z,96820.66
2023-06-08T18:49:46.472Z,96743.59
2023-06-08T18:52:13.384Z,96810.19
2023-06-08T18:54:40.759Z,96833.50
2023-06-08T18:57:08.072Z,96829.44
2023-06-08T18:59:34.761Z,96781.78
2023-06-08T19:02:01.486Z,96834.63
2023-06-08T19:04:28.083Z,96855.84
2023-06-08T19:06:54.691Z,96835.94
2023-06-08T19:09:25.582Z,96842.38
2023-06-08T19:11:52.860Z,96850.22
2023-06-08T19:14:19.536Z,96838.94
2023-06-08T19:16:48.838Z,96770.47
2023-06-08T19:19:19.098Z,96835.88
2023-06-08T19:21:45.801Z,96854.00
2023-06-08T19:24:12.895Z,96859.97
2023-06-08T19:26:40.274Z,96804.59
2023-06-08T19:29:08.851Z,96846.00
2023-06-08T19:31:35.912Z,96851.13
2023-06-08T19:34:02.690Z,96829.44
2023-06-08T19:36:29.481Z,96853.03
2023-06-08T19:38:56.345Z,96854.97
2023-06-08T19:41:23.776Z,96855.69
2023-06-08T19:43:51.232Z,96767.28
2023-06-08T19:46:22.111Z,96795.41
2023-06-08T19:48:51.012Z,96860.59
2023-06-08T19:51:17.743Z,96858.84
2023-06-08T19:53:44.659Z,96827.81
2023-06-08T19:56:11.328Z,96867.22
2023-06-08T19:58:37.999Z,96862.53
2023-06-08T20:01:04.801Z,96810.91
2023-06-08T20:03:31.551Z,96854.53
2023-06-08T20:05:58.359Z,96852.09
2023-06-08T20:08:27.910Z,96741.09
2023-06-08T20:10:55.628Z,96854.69
2023-06-08T20:13:22.215Z,96806.22
2023-06-08T20:15:48.979Z,96868.06
2023-06-08T20:18:19.835Z,96863.47
2023-06-08T20:20:47.169Z,96809.88
2023-06-08T20:23:14.353Z,96862.97
2023-06-08T20:25:43.441Z,96866.31
2023-06-08T20:28:10.568Z,96861.09
2023-06-08T20:30:38.026Z,96877.88
2023-06-08T20:33:05.519Z,96882.72
2023-06-08T20:35:32.416Z,96877.41
2023-06-08T20:37:59.241Z,96873.66
2023-06-08T20:40:25.868Z,96878.81
2023-06-08T20:42:53.615Z,96874.94
2023-06-08T20:45:20.655Z,96833.84
2023-06-08T20:47:47.396Z,96880.31
2023-06-08T20:50:14.212Z,96815.59
2023-06-08T20:52:43.260Z,96814.88
2023-06-08T20:55:10.459Z,96884.09
2023-06-08T20:57:37.289Z,96891.53
2023-06-08T21:00:07.610Z,96879.81
2023-06-08T21:02:34.558Z,96889.50
2023-06-08T21:05:01.215Z,96845.44
2023-06-08T21:07:27.882Z,96872.44
2023-06-08T21:09:54.571Z,96889.94
2023-06-08T21:12:23.229Z,96874.88
2023-06-08T21:14:49.964Z,96889.84
2023-06-08T21:17:16.612Z,96888.94
2023-06-08T21:19:43.264Z,96875.06
2023-06-08T21:22:09.909Z,96883.06
2023-06-08T21:24:36.533Z,96809.19
2023-06-08T21:27:03.186Z,96883.00
2023-06-08T21:29:29.893Z,96813.78
2023-06-08T21:31:56.596Z,96876.19
2023-06-08T21:34:23.300Z,96841.97
2023-06-08T21:36:50.647Z,96871.38
2023-06-08T21:39:17.319Z,96776.25
2023-06-08T21:41:44.542Z,96828.84
2023-06-08T21:44:11.306Z,96878.41
2023-06-08T21:46:37.977Z,96847.16
2023-06-08T21:49:04.720Z,96891.69
2023-06-08T21:51:31.413Z,96878.06
2023-06-08T21:53:58.025Z,96872.13
2023-06-08T21:56:25.067Z,96880.00
2023-06-08T21:58:51.707Z,96858.19
2023-06-08T22:01:18.673Z,96871.00
2023-06-08T22:03:45.427Z,96871.69
2023-06-08T22:06:12.639Z,96809.81
2023-06-08T22:08:39.241Z,96866.88
2023-06-08T22:11:05.975Z,96825.09
2023-06-08T22:13:34.021Z,96866.66
2023-06-08T22:16:02.442Z,96871.91
2023-06-08T22:18:29.968Z,96862.66
2023-06-08T22:21:00.835Z,96854.41
2023-06-08T22:23:28.094Z,96861.28
2023-06-08T22:25:54.841Z,96825.91
2023-06-08T22:28:22.300Z,96862.72
2023-06-08T22:30:49.176Z,96841.09
2023-06-08T22:33:18.714Z,96844.06
2023-06-08T22:35:49.845Z,96851.00
2023-06-08T22:38:16.640Z,96682.03
2023-06-08T22:40:43.915Z,96834.69
2023-06-08T22:43:11.456Z,96821.91
2023-06-08T22:45:38.487Z,96825.88
2023-06-08T22:48:05.735Z,96834.72
2023-06-08T22:50:32.852Z,96827.00
2023-06-08T22:52:59.795Z,96830.28
2023-06-08T22:55:27.646Z,96783.72
2023-06-08T22:57:55.128Z,96734.66
2023-06-08T23:00:22.357Z,96829.03
2023-06-08T23:02:49.598Z,96818.69
2023-06-08T23:05:17.043Z,96817.13
2023-06-08T23:07:45.130Z,96752.06
2023-06-08T23:10:15.985Z,96802.00
2023-06-08T23:12:44.072Z,96798.91
2023-06-08T23:15:14.467Z,96696.97
2023-06-08T23:17:41.267Z,96806.94
2023-06-08T23:20:10.517Z,96799.25
2023-06-08T23:22:37.254Z,96729.91
2023-06-08T23:25:06.330Z,96774.31
2023-06-08T23:27:33.776Z,96754.53
2023-06-08T23:30:01.337Z,96794.88
2023-06-08T23:32:28.266Z,96785.22
2023-06-08T23:34:55.836Z,96780.88
2023-06-08T23:37:23.177Z,96767.59
2023-06-08T23:39:51.048Z,96776.66
2023-06-08T23:42:20.594Z,96764.81
2023-06-08T23:44:49.966Z,96769.38
2023-06-08T23:47:20.498Z,96766.13
2023-06-08T23:49:48.180Z,96765.41
2023-06-08T23:52:15.061Z,96770.97
2023-06-08T23:54:41.720Z,96699.53
2023-06-08T23:57:10.115Z,96748.00
2023-06-08T23:59:37.188Z,96701.28
